INFORMAÇÕES METEOROLÓGICAS
METAR FOR SBHT
ADDS - METARS form results

(1144 UTC 18 July 2019)
Data provider http://aviationweather.gov/metar/data/
 
METAR text: SBHT 181100Z 08002KT 8000 -RA BKN010 OVC080 25/24 Q1016
Conditions at: SBHT (ALTAMIRA , BR) observed 1100 UTC 18 July 2019
Temperature: 25.0°C (77°F)
Dewpoint: 24.0°C (75°F) [RH = 94%]
Pressure (altimeter): 30.00 inches Hg (1016.0 mb)
Winds: from the E (80 degrees) at 2 MPH (2 knots; 1.0 m/s)
Visibility: 5 miles ( 8 km)
Ceiling: 1000 feet AGL
Clouds: broken clouds at 1000 feet AGL
overcast cloud deck at 8000 feet AGL
Weather: -RA  (light rain)

 MAPA DO AEROPORTO

 INFORMAÇÕES DA PISTA
Pista 7 Tamanho da pista 6572 ft Largura da pista 125 ft
Elevação da pista 0 ft Ranhura da pista 0 ft Proa da pista 0
Pista 25 Tamanho da pista 6572 ft Largura da pista 125 ft
Elevação da pista 0 ft Ranhura da pista 0 ft Proa da pista 0

 FREQUÊNCIAS DO AEROPORTO
Tipo AFIS Nome RDO Frequência 125.85 MHZ

 AUXÍLIOS DE NAVEGAÇÃO PRÓXIMOS AO AEROPORTO
Tipo VOR Nome Altamira Frequência 113200 KHZ
Tipo NDB Nome Altamira Frequência 295 KHZ





Powered by Virtual Airlines Manager [v2.6.2]